Blair, Wisconsin
Current Conditions -  °F | °C
As of 3:15 AM on Friday 31 Oct 2014 (Local Time) from KBCK Reporting Station
Overcast Overcast  
Wind Chill: 25°   Ceiling: 3300
Heat Index: 33°   Visibility: 10mi
Dew Point: 21°   Wind: 12mph
Humidity: 60%   Direction: 340°NNW
Pressure: 30.26"   Gusts: 23mph
Location:  44.29°N, 91.24°W
Report Text: KBCK 310815Z AUTO 34010G20KT 10SM OVC033 01/M06 A3026 RMK AO2 T00071062
Loading
Personal Weather Stations






























Interactive Weather Map
Tropical Storm Tracking
New forecast layout! Learn more

10-Day Weather Forecast

Advertisements
Track Severe Weather on mobile